Terminal Aerodrome Forecast
Issued by NWS

Home | Current Version | Previous Version | Text Only | Print | Product List | Glossary On
Versions: 1 2 3 4 5 6 7 8 9 10 11 12 13 14 15 16 17 18 19 20
000
FTUS43 KAPX 222331
TAFMBL
TAF
KMBL 222331Z 2300/2324 24004KT 6SM -SHRA BR OVC050
     FM230300 35004KT 4SM SHRA BR OVC020
     FM230800 33004KT 3SM SHRA BR OVC009
     FM231200 28004KT P6SM BKN008
     FM231400 27006KT P6SM SCT020
     FM231600 26007KT P6SM SCT250=

USA.gov is the U.S. government's official web portal to all federal, state and local government web resources and services.